Terminal Aerodrome Forecast
Issued by NWS

Home | Current Version | Previous Version | Text Only | Print | Product List | Glossary On
Versions: 1 2 3 4 5 6 7 8 9 10 11 12
000
FTUS45 KFGZ 302300
TAFGCN
TAF
KGCN 302320Z 3100/3124 24008G15KT P6SM SCT110 SCT250
     FM310200 VRB04KT P6SM FEW250
     FM311800 23017G24KT P6SM SCT250=

USA.gov is the U.S. government's official web portal to all federal, state and local government web resources and services.